Time;durP1;ratioP1;P1;durP2;ratioP2;P2;SDS_P1;SDS_P2;PMS_P1;PMS_P2;Temp;Humidity;BMP_temperature;BMP_pressure;BME280_temperature;BME280_humidity;BME280_pressure;Samples;Min_cycle;Max_cycle;Signal;HPM_P1;HPM_P2
2023/05/13 00:00:56;;;;;;;;;;;;;;;8.40;80.57;102213.56;5057783;28;19933;-72
2023/05/13 00:03:22;;;;;;;;;;;;;;;8.40;80.35;102212.72;5044864;28;19947;-73
2023/05/13 00:05:48;;;;;;;;;;;;;;;8.47;80.32;102208.97;5062954;28;19947;-72
2023/05/13 00:08:13;;;;;;;;;;;;;;;8.44;81.27;102212.06;5036214;28;19932;-71
2023/05/13 00:10:39;;;;;;;;;;;;;;;8.31;80.56;102208.66;5043306;28;19933;-72
2023/05/13 00:13:04;;;;;;;;;;;;;;;8.24;81.56;102213.25;5057400;28;20126;-72
2023/05/13 00:15:30;;;;;;;;;;;;;;;8.21;82.35;102217.16;5042937;28;20074;-73
2023/05/13 00:17:56;;;;;;;;;;;;;;;8.13;82.43;102212.09;5056824;28;19931;-73
2023/05/13 00:20:21;;;;;;;;;;;;;;;8.10;82.93;102204.53;5043987;28;20037;-73
2023/05/13 00:22:49;;;;;;;;;;;;;;;8.14;82.71;102213.75;5042691;28;19952;-73
2023/05/13 00:25:15;;;;;;;;;;;;;;;8.09;83.56;102216.22;5059219;28;20300;-73
2023/05/13 00:27:41;;;;;;;;;;;;;;;8.04;83.16;102203.53;5054074;28;19948;-74
2023/05/13 00:30:07;;;;;;;;;;;;;;;8.02;82.85;102210.13;5057542;28;19932;-73
2023/05/13 00:32:32;;;;;;;;;;;;;;;7.94;83.57;102208.56;5056608;28;20325;-73
2023/05/13 00:34:57;;;;;;;;;;;;;;;7.86;84.11;102206.97;5044865;28;19943;-73
2023/05/13 00:37:23;;;;;;;;;;;;;;;7.91;83.57;102206.28;5058484;28;19931;-73
2023/05/13 00:39:48;;;;;;;;;;;;;;;7.92;83.54;102200.78;5053390;28;19942;-73
2023/05/13 00:42:14;;;;;;;;;;;;;;;7.89;83.67;102205.69;5021264;28;20476;-73
2023/05/13 00:44:40;;;;;;;;;;;;;;;7.81;83.39;102204.13;5024363;28;19945;-73
2023/05/13 00:47:06;;;;;;;;;;;;;;;7.75;83.80;102210.31;5054012;28;19960;-73
2023/05/13 00:49:32;;;;;;;;;;;;;;;7.73;83.53;102212.38;5059359;28;19937;-73
2023/05/13 00:51:58;;;;;;;;;;;;;;;7.83;83.82;102211.91;5052879;28;19951;-73
2023/05/13 00:54:24;;;;;;;;;;;;;;;7.70;84.20;102212.78;5044019;28;19936;-72
2023/05/13 00:56:53;;;;;;;;;;;;;;;7.70;84.27;102210.13;5047275;28;19946;-72
2023/05/13 00:59:19;;;;;;;;;;;;;;;7.58;84.59;102207.31;5026892;28;19939;-72
2023/05/13 01:02:04;;;;;;;;;;;;;;;7.53;84.93;102207.16;5046147;28;19960;-72
2023/05/13 01:04:35;;;;;;;;;;;;;;;7.50;85.78;102206.75;5072293;28;20329;-73
2023/05/13 01:07:14;;;;;;;;;;;;;;;7.42;85.63;102201.69;5045249;28;19952;-72
2023/05/13 01:09:40;;;;;;;;;;;;;;;7.41;86.41;102213.38;5045891;28;19999;-72
2023/05/13 01:12:07;;;;;;;;;;;;;;;7.37;86.05;102208.44;5037810;28;19942;-72
2023/05/13 01:14:35;;;;;;;;;;;;;;;7.36;86.26;102214.00;5033809;28;19937;-73
2023/05/13 01:17:06;;;;;;;;;;;;;;;7.36;86.43;102206.00;5053983;28;19933;-73
2023/05/13 01:19:43;;;;;;;;;;;;;;;7.37;86.42;102208.44;5047608;28;19941;-72
2023/05/13 01:22:09;;;;;;;;;;;;;;;7.40;85.62;102207.22;5058302;28;19963;-73
2023/05/13 01:24:35;;;;;;;;;;;;;;;7.37;85.63;102207.63;5048322;28;19945;-73
2023/05/13 01:27:02;;;;;;;;;;;;;;;7.32;85.95;102202.97;5060146;28;19965;-72
2023/05/13 01:29:29;;;;;;;;;;;;;;;7.33;85.93;102209.09;5054780;28;20322;-72
2023/05/13 01:31:55;;;;;;;;;;;;;;;7.31;85.94;102213.81;5049313;28;20326;-71
2023/05/13 01:34:24;;;;;;;;;;;;;;;7.23;86.17;102212.19;5034231;28;19933;-73
2023/05/13 01:36:50;;;;;;;;;;;;;;;7.25;86.70;102215.50;5050720;28;19940;-71
2023/05/13 01:39:18;;;;;;;;;;;;;;;7.16;86.71;102216.75;5062958;28;19947;-71
2023/05/13 01:41:44;;;;;;;;;;;;;;;7.15;86.79;102220.44;5044691;28;20400;-71
2023/05/13 01:44:10;;;;;;;;;;;;;;;7.07;87.04;102224.16;5064194;28;19953;-72
2023/05/13 01:46:39;;;;;;;;;;;;;;;7.07;87.41;102223.34;5047557;28;19966;-73
2023/05/13 01:49:07;;;;;;;;;;;;;;;7.06;87.65;102225.19;5036781;28;19973;-73
2023/05/13 01:51:33;;;;;;;;;;;;;;;7.02;87.55;102221.28;5058325;28;20001;-72
2023/05/13 01:54:00;;;;;;;;;;;;;;;6.96;87.57;102227.47;5030145;28;19990;-72
2023/05/13 01:56:26;;;;;;;;;;;;;;;6.95;87.71;102231.16;5043297;28;20429;-72
2023/05/13 01:58:52;;;;;;;;;;;;;;;6.93;87.63;102225.22;5048971;28;19977;-72
2023/05/13 02:01:17;;;;;;;;;;;;;;;6.94;88.05;102228.72;5060707;28;19942;-71
2023/05/13 02:03:43;;;;;;;;;;;;;;;6.93;88.03;102225.22;5064482;28;19942;-72
2023/05/13 02:06:09;;;;;;;;;;;;;;;6.84;88.21;102219.31;5062349;28;19961;-72
2023/05/13 02:08:35;;;;;;;;;;;;;;;6.83;88.43;102216.84;5056004;28;19982;-71
2023/05/13 02:11:02;;;;;;;;;;;;;;;6.83;88.61;102222.97;5045166;28;20911;-72
2023/05/13 02:13:28;;;;;;;;;;;;;;;6.81;88.56;102221.56;5046993;28;19964;-73
2023/05/13 02:15:54;;;;;;;;;;;;;;;6.76;88.41;102221.34;5059358;28;19934;-73
2023/05/13 02:18:20;;;;;;;;;;;;;;;6.75;88.97;102217.88;5059323;28;19975;-73
2023/05/13 02:20:46;;;;;;;;;;;;;;;6.69;88.80;102215.22;5028407;28;19933;-73
2023/05/13 02:23:13;;;;;;;;;;;;;;;6.63;88.89;102219.53;5041681;28;19961;-73
2023/05/13 02:25:40;;;;;;;;;;;;;;;6.62;89.10;102220.56;5055932;28;20620;-73
2023/05/13 02:28:06;;;;;;;;;;;;;;;6.58;89.29;102224.69;5056221;28;20065;-73
2023/05/13 02:30:32;;;;;;;;;;;;;;;6.56;89.00;102221.38;5065323;28;20748;-73
2023/05/13 02:32:59;;;;;;;;;;;;;;;6.53;89.68;102222.63;5061113;28;19955;-71
2023/05/13 02:35:28;;;;;;;;;;;;;;;6.54;89.72;102223.44;5047177;28;20735;-72
2023/05/13 02:37:54;;;;;;;;;;;;;;;6.51;89.51;102218.56;5064698;28;19979;-72
2023/05/13 02:40:20;;;;;;;;;;;;;;;6.57;90.10;102223.06;5064017;28;20487;-71
2023/05/13 02:42:46;;;;;;;;;;;;;;;6.49;90.48;102221.41;5058376;28;19960;-72
2023/05/13 02:45:13;;;;;;;;;;;;;;;6.53;89.84;102225.28;5042134;28;19959;-72
2023/05/13 02:47:42;;;;;;;;;;;;;;;6.55;89.96;102217.09;5049278;28;19991;-73
2023/05/13 02:50:09;;;;;;;;;;;;;;;6.55;90.01;102217.09;5044375;28;19975;-72
2023/05/13 02:52:35;;;;;;;;;;;;;;;6.50;89.94;102217.72;5052510;28;20025;-73
2023/05/13 02:55:02;;;;;;;;;;;;;;;6.46;90.25;102219.16;5043486;28;19934;-73
2023/05/13 02:57:27;;;;;;;;;;;;;;;6.52;90.38;102217.53;5045964;28;20297;-73
2023/05/13 02:59:53;;;;;;;;;;;;;;;6.52;90.49;102217.53;5040282;28;19982;-72
2023/05/13 03:02:18;;;;;;;;;;;;;;;6.46;90.64;102218.34;5043675;28;20125;-73
2023/05/13 03:04:44;;;;;;;;;;;;;;;6.45;90.53;102214.88;5056984;28;21253;-72
2023/05/13 03:07:09;;;;;;;;;;;;;;;6.45;90.35;102220.19;5062063;28;19947;-73
2023/05/13 03:09:38;;;;;;;;;;;;;;;6.45;90.63;102228.16;5064952;28;20291;-73
2023/05/13 03:12:06;;;;;;;;;;;;;;;6.45;90.48;102220.19;5045937;28;19959;-73
2023/05/13 03:14:33;;;;;;;;;;;;;;;6.41;90.91;102224.28;5076712;28;19968;-73
2023/05/13 03:16:59;;;;;;;;;;;;;;;6.44;90.65;102218.56;5059100;28;19974;-73
2023/05/13 03:19:26;;;;;;;;;;;;;;;6.42;90.79;102217.91;5041387;28;20005;-73
2023/05/13 03:21:51;;;;;;;;;;;;;;;6.51;90.94;102224.69;5054000;28;19953;-73
2023/05/13 03:24:17;;;;;;;;;;;;;;;6.42;91.00;102230.41;5044396;28;19940;-72
2023/05/13 03:26:43;;;;;;;;;;;;;;;6.37;91.36;102222.22;5053432;28;19958;-72
2023/05/13 03:29:08;;;;;;;;;;;;;;;6.33;91.33;102229.00;5042884;28;19944;-72
2023/05/13 03:31:35;;;;;;;;;;;;;;;6.34;91.78;102226.13;5045193;28;19956;-72
2023/05/13 03:34:05;;;;;;;;;;;;;;;6.38;91.44;102223.88;5046016;28;19943;-73
2023/05/13 03:36:31;;;;;;;;;;;;;;;6.32;91.54;102225.50;5029291;28;19941;-71
2023/05/13 03:38:57;;;;;;;;;;;;;;;6.37;91.51;102222.22;5030418;28;20024;-72
2023/05/13 03:41:23;;;;;;;;;;;;;;;6.51;91.80;102223.88;5051750;28;19978;-72
2023/05/13 03:43:49;;;;;;;;;;;;;;;6.60;90.72;102225.28;5031241;28;19943;-73
2023/05/13 03:46:15;;;;;;;;;;;;;;;6.58;91.32;102235.34;5038656;28;19958;-72
2023/05/13 03:48:41;;;;;;;;;;;;;;;6.56;90.88;102227.53;5044468;28;19937;-73
2023/05/13 03:51:07;;;;;;;;;;;;;;;6.62;90.95;102231.22;5058276;28;20042;-73
2023/05/13 03:53:32;;;;;;;;;;;;;;;6.57;91.09;102228.38;5027759;28;20568;-73
2023/05/13 03:55:58;;;;;;;;;;;;;;;6.60;90.69;102233.28;5040357;28;19938;-73
2023/05/13 03:58:26;;;;;;;;;;;;;;;6.58;91.06;102232.66;5058870;28;19967;-73
2023/05/13 04:00:51;;;;;;;;;;;;;;;6.58;90.95;102232.66;5054481;28;19963;-73
2023/05/13 04:03:17;;;;;;;;;;;;;;;6.68;91.00;102235.72;5056332;28;20023;-73
2023/05/13 04:05:46;;;;;;;;;;;;;;;6.67;91.07;102239.41;5055465;28;20082;-73
2023/05/13 04:08:12;;;;;;;;;;;;;;;6.76;91.06;102238.16;5037667;28;20643;-73
2023/05/13 04:10:38;;;;;;;;;;;;;;;6.79;90.73;102236.94;5044684;28;19937;-73
2023/05/13 04:13:03;;;;;;;;;;;;;;;6.82;90.77;102232.00;5043322;28;19955;-72
2023/05/13 04:15:30;;;;;;;;;;;;;;;6.94;90.75;102239.34;5041227;28;19950;-73
2023/05/13 04:17:56;;;;;;;;;;;;;;;6.95;90.57;102238.31;5055784;28;20014;-72
2023/05/13 04:20:21;;;;;;;;;;;;;;;6.98;90.88;102236.09;5027394;28;20027;-73
2023/05/13 04:22:47;;;;;;;;;;;;;;;7.06;90.55;102240.34;5058512;28;19986;-73
2023/05/13 04:25:13;;;;;;;;;;;;;;;7.16;90.25;102237.25;5040507;28;19936;-72
2023/05/13 04:27:40;;;;;;;;;;;;;;;7.23;90.61;102235.38;5056121;28;19943;-70
2023/05/13 04:30:12;;;;;;;;;;;;;;;7.28;90.03;102233.72;5042035;28;19964;-73
2023/05/13 04:32:39;;;;;;;;;;;;;;;7.37;90.26;102242.28;5053638;28;19954;-73
2023/05/13 04:35:08;;;;;;;;;;;;;;;7.48;89.69;102252.28;5041226;28;19935;-73
2023/05/13 04:37:34;;;;;;;;;;;;;;;7.64;89.57;102248.31;5052091;28;19938;-73
2023/05/13 04:40:04;;;;;;;;;;;;;;;7.76;88.91;102245.78;5057582;28;20078;-73
2023/05/13 04:42:30;;;;;;;;;;;;;;;7.93;88.04;102247.75;5042783;28;20019;-72
2023/05/13 04:44:58;;;;;;;;;;;;;;;8.02;87.59;102242.97;5042392;28;19989;-72
2023/05/13 04:47:23;;;;;;;;;;;;;;;8.21;86.88;102257.22;5046032;28;19993;-72
2023/05/13 04:49:49;;;;;;;;;;;;;;;8.36;86.65;102257.72;5054370;28;19936;-72
2023/05/13 04:52:15;;;;;;;;;;;;;;;8.42;86.15;102251.53;5052487;28;19955;-74
2023/05/13 04:54:41;;;;;;;;;;;;;;;8.47;85.48;102262.38;5055708;28;20035;-71
2023/05/13 04:57:07;;;;;;;;;;;;;;;8.58;85.50;102257.34;5038087;28;19930;-74
2023/05/13 04:59:33;;;;;;;;;;;;;;;8.60;86.10;102258.78;5042107;28;19948;-74
2023/05/13 05:01:59;;;;;;;;;;;;;;;8.62;85.64;102262.03;5077538;28;19962;-73
2023/05/13 05:04:25;;;;;;;;;;;;;;;8.74;85.72;102254.13;5042739;28;20301;-74
2023/05/13 05:06:51;;;;;;;;;;;;;;;8.80;85.19;102253.22;5032872;28;19994;-74
2023/05/13 05:09:17;;;;;;;;;;;;;;;8.92;84.83;102259.47;5044235;28;20031;-74
2023/05/13 05:11:45;;;;;;;;;;;;;;;8.99;84.85;102262.88;5054878;28;19952;-74
2023/05/13 05:14:12;;;;;;;;;;;;;;;9.07;84.39;102256.44;5059646;28;20009;-74
2023/05/13 05:16:37;;;;;;;;;;;;;;;9.20;82.81;102260.81;5047943;28;20688;-74
2023/05/13 05:19:03;;;;;;;;;;;;;;;9.40;81.14;102266.75;5051469;28;19977;-73
2023/05/13 05:21:29;;;;;;;;;;;;;;;9.55;79.78;102258.31;5054072;28;20024;-73
2023/05/13 05:23:55;;;;;;;;;;;;;;;9.82;78.93;102269.47;5059156;28;20410;-74
2023/05/13 05:26:23;;;;;;;;;;;;;;;10.00;78.44;102271.31;5055020;28;19953;-74
2023/05/13 05:28:49;;;;;;;;;;;;;;;10.16;77.22;102267.16;5054730;28;19935;-73
2023/05/13 05:31:15;;;;;;;;;;;;;;;10.25;75.53;102263.13;5073016;28;19929;-74
2023/05/13 05:33:41;;;;;;;;;;;;;;;10.50;75.37;102263.75;5057070;28;20400;-73
2023/05/13 05:36:07;;;;;;;;;;;;;;;10.62;74.80;102263.75;5039477;28;20558;-73
2023/05/13 05:38:33;;;;;;;;;;;;;;;11.03;72.75;102261.97;5033076;28;19939;-73
2023/05/13 05:41:00;;;;;;;;;;;;;;;11.05;73.53;102263.41;5061194;28;19942;-73
2023/05/13 05:43:26;;;;;;;;;;;;;;;11.28;71.39;102261.72;5061322;28;19952;-73
2023/05/13 05:45:51;;;;;;;;;;;;;;;11.37;71.29;102263.78;5067809;28;19958;-71
2023/05/13 05:48:18;;;;;;;;;;;;;;;11.42;71.94;102269.25;5041949;28;19932;-72
2023/05/13 05:50:44;;;;;;;;;;;;;;;11.59;71.12;102258.59;5058205;28;20009;-72
2023/05/13 05:53:13;;;;;;;;;;;;;;;11.87;69.85;102262.34;5065766;28;19949;-72
2023/05/13 05:55:39;;;;;;;;;;;;;;;11.95;69.40;102262.75;5059660;28;19937;-73
2023/05/13 05:58:08;;;;;;;;;;;;;;;12.14;68.45;102276.78;5048583;28;19933;-72
2023/05/13 06:00:35;;;;;;;;;;;;;;;12.23;68.97;102269.16;5036719;28;19942;-72
2023/05/13 06:03:01;;;;;;;;;;;;;;;12.28;68.98;102267.34;5055048;28;19954;-73
2023/05/13 06:05:27;;;;;;;;;;;;;;;12.54;69.13;102265.91;5066470;28;20598;-72
2023/05/13 06:07:52;;;;;;;;;;;;;;;12.76;66.95;102274.00;5065258;28;19943;-73
2023/05/13 06:10:18;;;;;;;;;;;;;;;12.96;66.38;102272.69;5064284;28;19929;-73
2023/05/13 06:12:44;;;;;;;;;;;;;;;13.07;65.32;102266.34;5028854;28;20093;-73
2023/05/13 06:15:10;;;;;;;;;;;;;;;13.27;64.43;102272.03;5062624;28;20021;-73
2023/05/13 06:17:36;;;;;;;;;;;;;;;13.46;64.22;102263.66;5066264;28;19942;-73
2023/05/13 06:20:04;;;;;;;;;;;;;;;13.63;62.12;102267.88;5060625;28;19940;-72
2023/05/13 06:22:30;;;;;;;;;;;;;;;13.71;62.67;102274.69;5058079;28;19951;-73
2023/05/13 06:24:56;;;;;;;;;;;;;;;13.78;61.01;102261.84;5052238;28;19942;-73
2023/05/13 06:27:23;;;;;;;;;;;;;;;13.98;61.23;102263.94;5066256;28;19953;-73
2023/05/13 06:29:49;;;;;;;;;;;;;;;14.30;60.84;102263.94;5064046;28;19943;-73
2023/05/13 06:32:14;;;;;;;;;;;;;;;14.29;60.60;102274.97;5051525;28;19961;-74
2023/05/13 06:34:47;;;;;;;;;;;;;;;14.34;60.00;102273.13;5043132;28;19933;-74
2023/05/13 06:37:13;;;;;;;;;;;;;;;14.51;58.96;102264.13;5040506;28;19932;-72
2023/05/13 06:39:39;;;;;;;;;;;;;;;14.63;57.79;102265.56;5051552;28;19936;-73
2023/05/13 06:42:05;;;;;;;;;;;;;;;14.71;57.28;102267.78;5054612;28;19963;-74
2023/05/13 06:44:33;;;;;;;;;;;;;;;14.98;56.74;102273.06;5058596;28;19943;-74
2023/05/13 06:47:01;;;;;;;;;;;;;;;15.12;57.08;102272.59;5059199;28;19970;-74
2023/05/13 06:49:27;;;;;;;;;;;;;;;15.25;57.48;102272.09;5033336;28;20387;-74
2023/05/13 06:51:52;;;;;;;;;;;;;;;15.19;55.85;102265.06;5057708;28;19961;-73
2023/05/13 06:54:18;;;;;;;;;;;;;;;15.32;55.35;102269.16;5058886;28;19934;-74
2023/05/13 06:56:44;;;;;;;;;;;;;;;15.41;54.46;102276.47;5055575;28;19941;-74
2023/05/13 06:59:10;;;;;;;;;;;;;;;15.66;54.56;102273.09;5055964;28;19961;-73
2023/05/13 07:01:36;;;;;;;;;;;;;;;15.67;54.77;102271.19;5051341;28;19951;-74
2023/05/13 07:04:02;;;;;;;;;;;;;;;15.66;54.13;102272.28;5027698;28;20481;-73
2023/05/13 07:06:27;;;;;;;;;;;;;;;16.09;53.94;102279.09;5065829;28;19969;-74
2023/05/13 07:08:53;;;;;;;;;;;;;;;16.31;53.37;102278.81;5062970;28;20048;-74
2023/05/13 07:11:18;;;;;;;;;;;;;;;16.16;53.51;102281.53;5056251;28;19941;-74
2023/05/13 07:13:44;;;;;;;;;;;;;;;16.34;53.08;102281.00;5063569;28;19946;-73
2023/05/13 07:16:10;;;;;;;;;;;;;;;16.64;52.70;102278.25;5070468;28;20723;-72
2023/05/13 07:18:36;;;;;;;;;;;;;;;16.56;53.16;102280.69;5052650;28;19950;-72
2023/05/13 07:21:05;;;;;;;;;;;;;;;16.60;51.98;102276.38;5045572;28;19961;-73
2023/05/13 07:23:31;;;;;;;;;;;;;;;16.33;51.92;102282.88;5058161;28;19942;-73
2023/05/13 07:25:56;;;;;;;;;;;;;;;16.76;52.85;102279.91;5063970;28;20438;-73
2023/05/13 07:28:22;;;;;;;;;;;;;;;17.13;52.47;102277.59;5045836;28;19937;-73
2023/05/13 07:30:48;;;;;;;;;;;;;;;17.35;50.63;102279.16;5054102;28;19984;-73
2023/05/13 07:33:13;;;;;;;;;;;;;;;17.13;52.50;102280.31;5061168;28;20440;-73
2023/05/13 07:35:41;;;;;;;;;;;;;;;17.59;52.64;102277.41;5068880;28;20358;-73
2023/05/13 07:38:08;;;;;;;;;;;;;;;17.79;49.43;102270.28;5057504;28;19938;-72
2023/05/13 07:40:33;;;;;;;;;;;;;;;17.57;50.71;102266.03;5061747;28;19940;-74
2023/05/13 07:42:58;;;;;;;;;;;;;;;17.58;50.77;102270.38;5049161;28;19952;-74
2023/05/13 07:45:24;;;;;;;;;;;;;;;17.86;48.64;102260.75;5066118;28;20449;-73
2023/05/13 07:47:50;;;;;;;;;;;;;;;17.95;47.46;102259.06;5049241;28;19942;-73
2023/05/13 07:50:15;;;;;;;;;;;;;;;17.86;48.19;102260.75;5058981;28;19931;-73
2023/05/13 07:52:42;;;;;;;;;;;;;;;18.20;47.61;102260.75;5065801;28;19953;-74
2023/05/13 07:55:09;;;;;;;;;;;;;;;18.32;47.07;102256.88;5065325;28;19943;-75
2023/05/13 07:57:35;;;;;;;;;;;;;;;18.36;47.87;102252.50;5060427;28;20639;-73
2023/05/13 08:00:01;;;;;;;;;;;;;;;18.53;46.85;102261.00;5061645;28;20078;-75
2023/05/13 08:02:26;;;;;;;;;;;;;;;18.63;46.01;102262.78;5074460;28;20050;-72
2023/05/13 08:04:52;;;;;;;;;;;;;;;18.98;43.73;102258.94;5070178;28;19974;-73
2023/05/13 08:07:17;;;;;;;;;;;;;;;18.95;45.48;102260.31;5030237;28;19962;-72
2023/05/13 08:09:43;;;;;;;;;;;;;;;18.55;45.34;102264.22;5031581;28;20035;-73
2023/05/13 08:12:08;;;;;;;;;;;;;;;19.17;43.94;102258.97;5047605;28;19994;-74
2023/05/13 08:14:34;;;;;;;;;;;;;;;19.39;45.32;102261.16;5035277;28;20417;-74
2023/05/13 08:17:00;;;;;;;;;;;;;;;19.42;45.17;102263.25;5027745;28;19941;-73
2023/05/13 08:19:25;;;;;;;;;;;;;;;19.53;44.96;102257.41;5059555;28;19989;-72
2023/05/13 08:21:51;;;;;;;;;;;;;;;19.41;44.34;102257.03;5052049;28;19945;-73
2023/05/13 08:24:16;;;;;;;;;;;;;;;19.44;44.49;102252.91;5040753;28;20349;-73
2023/05/13 08:26:42;;;;;;;;;;;;;;;19.59;44.71;102255.47;5050065;28;19969;-73
2023/05/13 08:29:11;;;;;;;;;;;;;;;20.09;41.60;102255.78;5031005;28;20273;-74
2023/05/13 08:31:37;;;;;;;;;;;;;;;19.81;42.07;102252.13;5040765;28;19976;-74
2023/05/13 08:34:03;;;;;;;;;;;;;;;19.96;41.00;102259.25;5039074;28;19946;-74
2023/05/13 08:36:28;;;;;;;;;;;;;;;19.75;42.70;102251.41;5017329;28;19946;-74
2023/05/13 08:38:54;;;;;;;;;;;;;;;19.80;41.28;102256.78;5034671;28;19931;-74
2023/05/13 08:41:21;;;;;;;;;;;;;;;19.96;41.25;102256.53;5040222;28;19931;-73
2023/05/13 08:43:47;;;;;;;;;;;;;;;20.14;40.69;102252.97;5035652;28;19969;-73
2023/05/13 08:46:15;;;;;;;;;;;;;;;20.06;41.16;102251.75;5039596;28;20011;-74
2023/05/13 08:48:42;;;;;;;;;;;;;;;19.95;39.92;102254.91;5027230;28;20555;-72
2023/05/13 08:51:08;;;;;;;;;;;;;;;20.31;42.24;102255.94;5043525;28;20020;-72
2023/05/13 08:53:34;;;;;;;;;;;;;;;20.40;40.74;102251.44;5029130;28;20404;-73
2023/05/13 08:56:00;;;;;;;;;;;;;;;20.54;41.25;102261.56;5048251;28;19947;-73
2023/05/13 08:58:26;;;;;;;;;;;;;;;20.72;39.92;102250.56;5047647;28;19941;-74
2023/05/13 09:00:52;;;;;;;;;;;;;;;20.64;39.95;102250.47;5041026;28;19940;-75
2023/05/13 09:03:20;;;;;;;;;;;;;;;20.15;39.78;102249.94;5037081;28;19946;-73
2023/05/13 09:05:46;;;;;;;;;;;;;;;20.70;41.00;102255.53;5016844;28;19953;-74
2023/05/13 09:08:12;;;;;;;;;;;;;;;20.89;42.20;102257.34;5042908;28;20058;-73
2023/05/13 09:10:38;;;;;;;;;;;;;;;21.27;39.08;102253.31;5048811;28;20116;-73
2023/05/13 09:13:06;;;;;;;;;;;;;;;21.18;39.27;102255.09;5029439;28;19992;-72
2023/05/13 09:15:31;;;;;;;;;;;;;;;21.08;41.17;102249.88;5041928;28;19936;-72
2023/05/13 09:17:58;;;;;;;;;;;;;;;21.27;40.10;102257.94;5044591;28;20046;-74
2023/05/13 09:20:24;;;;;;;;;;;;;;;21.64;38.28;102262.31;5045170;28;20324;-73
2023/05/13 09:22:51;;;;;;;;;;;;;;;21.29;39.56;102253.03;5041520;28;20066;-72
2023/05/13 09:25:17;;;;;;;;;;;;;;;21.20;38.93;102252.06;5044636;28;19968;-72
2023/05/13 09:27:47;;;;;;;;;;;;;;;21.30;38.38;102251.91;5021299;28;20038;-73
2023/05/13 09:30:16;;;;;;;;;;;;;;;21.30;37.96;102251.09;5049825;28;19930;-72
2023/05/13 09:32:42;;;;;;;;;;;;;;;21.42;38.54;102254.09;5008655;28;19957;-73
2023/05/13 09:35:17;;;;;;;;;;;;;;;20.97;37.87;102243.84;5018560;28;19938;-72
2023/05/13 09:37:47;;;;;;;;;;;;;;;21.63;37.65;102251.72;5048678;28;19947;-73
2023/05/13 09:40:13;;;;;;;;;;;;;;;21.42;36.93;102254.91;5048458;28;20480;-72
2023/05/13 09:42:40;;;;;;;;;;;;;;;21.71;37.13;102243.63;5045883;28;19950;-74
2023/05/13 09:45:09;;;;;;;;;;;;;;;21.85;37.69;102254.47;5029443;28;19967;-73
2023/05/13 09:47:34;;;;;;;;;;;;;;;22.04;36.68;102249.63;5047971;28;20340;-74
2023/05/13 09:50:01;;;;;;;;;;;;;;;21.88;36.04;102261.22;5048435;28;20583;-74
2023/05/13 09:52:30;;;;;;;;;;;;;;;21.80;35.85;102249.94;5041010;28;19969;-73
2023/05/13 09:54:59;;;;;;;;;;;;;;;21.98;36.07;102256.31;5049917;28;20013;-74
2023/05/13 09:57:28;;;;;;;;;;;;;;;22.16;37.14;102251.03;5041068;28;19937;-74
2023/05/13 10:00:00;;;;;;;;;;;;;;;21.95;38.14;102253.44;5015600;28;19973;-75
2023/05/13 10:02:26;;;;;;;;;;;;;;;21.41;36.69;102261.47;5048733;28;19921;-73
2023/05/13 10:04:53;;;;;;;;;;;;;;;21.13;36.08;102251.69;5046374;28;20011;-73
2023/05/13 10:07:23;;;;;;;;;;;;;;;21.02;37.14;102256.53;5046098;28;20084;-73
2023/05/13 10:09:56;;;;;;;;;;;;;;;21.09;36.34;102256.13;5047354;28;19945;-73
2023/05/13 10:12:23;;;;;;;;;;;;;;;21.14;37.15;102254.13;5022567;28;20061;-74
2023/05/13 10:14:49;;;;;;;;;;;;;;;21.16;37.16;102251.09;5043176;28;19941;-72
2023/05/13 10:17:15;;;;;;;;;;;;;;;21.29;36.81;102255.75;5047401;28;19940;-74
2023/05/13 10:19:43;;;;;;;;;;;;;;;21.46;36.61;102250.44;5042016;28;20493;-74
2023/05/13 10:22:09;;;;;;;;;;;;;;;21.88;36.47;102245.69;5048541;28;19954;-74
2023/05/13 10:24:36;;;;;;;;;;;;;;;22.09;36.16;102246.00;5046862;28;19987;-74
2023/05/13 10:27:02;;;;;;;;;;;;;;;22.03;34.29;102237.13;5048177;28;20399;-72
2023/05/13 10:29:27;;;;;;;;;;;;;;;22.23;35.54;102243.22;5053713;28;20403;-72
2023/05/13 10:31:54;;;;;;;;;;;;;;;22.89;34.19;102235.97;5048138;28;20012;-74
2023/05/13 10:34:20;;;;;;;;;;;;;;;22.60;33.93;102239.22;5045047;28;20366;-73
2023/05/13 10:36:53;;;;;;;;;;;;;;;22.49;35.00;102232.41;5044455;28;19990;-74
2023/05/13 10:39:37;;;;;;;;;;;;;;;22.59;34.25;102238.41;5043695;28;20021;-75
2023/05/13 10:42:22;;;;;;;;;;;;;;;23.00;35.65;102225.56;5038726;28;19999;-74
2023/05/13 10:44:51;;;;;;;;;;;;;;;23.21;33.91;102231.22;5040576;28;19940;-73
2023/05/13 10:47:17;;;;;;;;;;;;;;;22.94;32.98;102230.34;5030624;28;20011;-73
2023/05/13 10:49:48;;;;;;;;;;;;;;;22.61;33.36;102225.22;5023154;28;19936;-72
2023/05/13 10:52:14;;;;;;;;;;;;;;;22.76;34.59;102226.75;5040430;28;19974;-73
2023/05/13 10:54:40;;;;;;;;;;;;;;;22.33;34.04;102223.81;5044757;28;19932;-74
2023/05/13 10:57:07;;;;;;;;;;;;;;;22.30;32.29;102227.19;5029338;28;19961;-73
2023/05/13 10:59:34;;;;;;;;;;;;;;;22.68;35.58;102223.97;5045780;28;19935;-73
2023/05/13 11:02:00;;;;;;;;;;;;;;;22.55;32.65;102220.22;5041500;28;20039;-73
2023/05/13 11:04:26;;;;;;;;;;;;;;;22.41;32.01;102225.78;5047988;28;19943;-73
2023/05/13 11:06:51;;;;;;;;;;;;;;;22.50;33.93;102218.47;5053646;28;19960;-73
2023/05/13 11:09:20;;;;;;;;;;;;;;;22.31;32.56;102217.88;5064998;28;19959;-72
2023/05/13 11:11:47;;;;;;;;;;;;;;;22.67;32.39;102201.31;5059839;28;19950;-73
2023/05/13 11:14:16;;;;;;;;;;;;;;;22.94;32.15;102216.69;5055750;28;19943;-71
2023/05/13 11:17:03;;;;;;;;;;;;;;;22.42;30.37;102211.03;5057683;28;20292;-73
2023/05/13 11:19:30;;;;;;;;;;;;;;;22.36;30.52;102211.50;5053321;28;19938;-72
2023/05/13 11:21:57;;;;;;;;;;;;;;;22.78;33.83;102201.84;5060245;28;20066;-74
2023/05/13 11:24:23;;;;;;;;;;;;;;;23.15;30.30;102201.31;5068523;28;19935;-72
2023/05/13 11:26:53;;;;;;;;;;;;;;;23.26;30.77;102201.00;5066012;28;19954;-76
2023/05/13 11:29:32;;;;;;;;;;;;;;;23.64;31.16;102210.22;5068075;28;19935;-73
2023/05/13 11:31:58;;;;;;;;;;;;;;;23.28;29.51;102206.94;5065733;28;19996;-72
2023/05/13 11:34:24;;;;;;;;;;;;;;;23.29;29.10;102201.16;5062191;28;19972;-73
2023/05/13 11:36:52;;;;;;;;;;;;;;;23.86;29.83;102194.75;5056275;28;19969;-74
2023/05/13 11:39:19;;;;;;;;;;;;;;;23.03;29.79;102200.31;5060683;28;19965;-73
2023/05/13 11:41:46;;;;;;;;;;;;;;;23.32;30.62;102197.00;5029396;28;19961;-71
2023/05/13 11:44:19;;;;;;;;;;;;;;;23.69;30.22;102198.28;5058369;28;19938;-71
2023/05/13 11:46:55;;;;;;;;;;;;;;;24.10;28.49;102196.94;5046034;28;19988;-72
2023/05/13 11:49:37;;;;;;;;;;;;;;;24.32;29.13;102187.66;5056797;28;19938;-72
2023/05/13 11:52:23;;;;;;;;;;;;;;;24.96;29.58;102193.81;5041775;28;19946;-73
2023/05/13 11:54:50;;;;;;;;;;;;;;;24.14;30.74;102190.47;5060041;28;19932;-72
2023/05/13 11:57:25;;;;;;;;;;;;;;;23.13;30.50;102192.63;5062265;28;19934;-72
2023/05/13 11:59:50;;;;;;;;;;;;;;;23.89;29.99;102185.88;5054997;28;20436;-73
2023/05/13 12:02:18;;;;;;;;;;;;;;;24.31;28.29;102184.13;5059092;28;19963;-72
2023/05/13 12:04:44;;;;;;;;;;;;;;;24.33;29.16;102187.41;5059766;28;19939;-75
2023/05/13 12:07:12;;;;;;;;;;;;;;;24.94;29.96;102184.34;5061371;28;19952;-72
2023/05/13 12:09:38;;;;;;;;;;;;;;;24.05;28.61;102186.97;5063760;28;19936;-74
2023/05/13 12:12:04;;;;;;;;;;;;;;;24.12;28.14;102184.53;5059171;28;19972;-73
2023/05/13 12:14:29;;;;;;;;;;;;;;;23.91;29.25;102183.59;5060044;28;19988;-73
2023/05/13 12:16:56;;;;;;;;;;;;;;;23.08;30.06;102192.78;5067054;28;20447;-71
2023/05/13 12:19:21;;;;;;;;;;;;;;;22.50;31.37;102180.25;5062276;28;19932;-74
2023/05/13 12:21:50;;;;;;;;;;;;;;;21.98;29.69;102182.69;5064506;28;19956;-74
2023/05/13 12:24:34;;;;;;;;;;;;;;;23.62;27.59;102179.63;5066042;28;20299;-73
2023/05/13 12:27:03;;;;;;;;;;;;;;;24.52;25.26;102189.72;5052789;28;19954;-74
2023/05/13 12:29:38;;;;;;;;;;;;;;;24.46;25.08;102182.84;5050946;28;19940;-74
2023/05/13 12:32:04;;;;;;;;;;;;;;;23.26;27.96;102187.34;5061626;28;19956;-71
2023/05/13 12:34:46;;;;;;;;;;;;;;;22.90;27.14;102182.97;5062958;28;19985;-73
2023/05/13 12:37:12;;;;;;;;;;;;;;;24.39;27.14;102183.34;5045473;28;20406;-73
2023/05/13 12:39:38;;;;;;;;;;;;;;;24.80;27.01;102192.81;5066226;28;19935;-73